sensor_id;sensor_type;location;lat;lon;timestamp;temperature;humidity
1988;DHT22;12775;46.994;15.498;2023-06-10T00:01:56;19.50;99.90
1988;DHT22;12775;46.994;15.498;2023-06-10T00:04:22;19.50;99.90
1988;DHT22;12775;46.994;15.498;2023-06-10T00:06:49;19.50;99.90
1988;DHT22;12775;46.994;15.498;2023-06-10T00:09:15;19.50;99.90
1988;DHT22;12775;46.994;15.498;2023-06-10T00:11:42;19.40;99.90
1988;DHT22;12775;46.994;15.498;2023-06-10T00:14:09;19.40;99.90
1988;DHT22;12775;46.994;15.498;2023-06-10T00:16:36;19.40;99.90
1988;DHT22;12775;46.994;15.498;2023-06-10T00:19:03;19.30;99.90
1988;DHT22;12775;46.994;15.498;2023-06-10T00:21:30;19.30;99.90
1988;DHT22;12775;46.994;15.498;2023-06-10T00:23:56;19.30;99.90
1988;DHT22;12775;46.994;15.498;2023-06-10T00:26:22;19.30;99.90
1988;DHT22;12775;46.994;15.498;2023-06-10T00:28:49;19.30;99.90
1988;DHT22;12775;46.994;15.498;2023-06-10T00:31:16;19.30;99.90
1988;DHT22;12775;46.994;15.498;2023-06-10T00:33:42;19.20;99.90
1988;DHT22;12775;46.994;15.498;2023-06-10T00:36:09;19.20;99.90
1988;DHT22;12775;46.994;15.498;2023-06-10T00:38:35;19.20;99.90
1988;DHT22;12775;46.994;15.498;2023-06-10T00:41:03;19.20;99.90
1988;DHT22;12775;46.994;15.498;2023-06-10T00:43:29;19.20;99.90
1988;DHT22;12775;46.994;15.498;2023-06-10T00:45:56;19.20;99.90
1988;DHT22;12775;46.994;15.498;2023-06-10T00:48:22;19.20;99.90
1988;DHT22;12775;46.994;15.498;2023-06-10T00:50:49;19.20;99.90
1988;DHT22;12775;46.994;15.498;2023-06-10T00:53:17;19.20;99.90
1988;DHT22;12775;46.994;15.498;2023-06-10T00:55:44;19.20;99.90
1988;DHT22;12775;46.994;15.498;2023-06-10T00:58:10;19.20;99.90
1988;DHT22;12775;46.994;15.498;2023-06-10T01:00:38;19.30;99.90
1988;DHT22;12775;46.994;15.498;2023-06-10T01:03:05;19.20;99.90
1988;DHT22;12775;46.994;15.498;2023-06-10T01:05:34;19.20;99.90
1988;DHT22;12775;46.994;15.498;2023-06-10T01:08:12;19.30;99.90
1988;DHT22;12775;46.994;15.498;2023-06-10T01:10:42;19.30;99.90
1988;DHT22;12775;46.994;15.498;2023-06-10T01:13:10;19.30;99.90
1988;DHT22;12775;46.994;15.498;2023-06-10T01:15:37;19.30;99.90
1988;DHT22;12775;46.994;15.498;2023-06-10T01:18:05;19.30;99.90
1988;DHT22;12775;46.994;15.498;2023-06-10T01:20:31;19.30;99.90
1988;DHT22;12775;46.994;15.498;2023-06-10T01:22:59;19.30;99.90
1988;DHT22;12775;46.994;15.498;2023-06-10T01:25:25;19.30;99.90
1988;DHT22;12775;46.994;15.498;2023-06-10T01:28:07;19.30;99.90
1988;DHT22;12775;46.994;15.498;2023-06-10T01:30:32;19.30;99.90
1988;DHT22;12775;46.994;15.498;2023-06-10T01:32:58;19.30;99.90
1988;DHT22;12775;46.994;15.498;2023-06-10T01:35:25;19.20;99.90
1988;DHT22;12775;46.994;15.498;2023-06-10T01:37:51;19.30;99.90
1988;DHT22;12775;46.994;15.498;2023-06-10T01:40:17;19.20;99.90
1988;DHT22;12775;46.994;15.498;2023-06-10T01:42:44;19.20;99.90
1988;DHT22;12775;46.994;15.498;2023-06-10T01:45:12;19.10;99.90
1988;DHT22;12775;46.994;15.498;2023-06-10T01:47:39;19.10;99.90
1988;DHT22;12775;46.994;15.498;2023-06-10T01:50:06;19.10;99.90
1988;DHT22;12775;46.994;15.498;2023-06-10T01:52:33;19.10;99.90
1988;DHT22;12775;46.994;15.498;2023-06-10T01:54:59;19.10;99.90
1988;DHT22;12775;46.994;15.498;2023-06-10T01:57:26;19.10;99.90
1988;DHT22;12775;46.994;15.498;2023-06-10T01:59:53;19.00;99.90
1988;DHT22;12775;46.994;15.498;2023-06-10T02:02:19;19.00;99.90
1988;DHT22;12775;46.994;15.498;2023-06-10T02:04:46;19.00;99.90
1988;DHT22;12775;46.994;15.498;2023-06-10T02:07:13;19.00;99.90
1988;DHT22;12775;46.994;15.498;2023-06-10T02:09:40;18.90;99.90
1988;DHT22;12775;46.994;15.498;2023-06-10T02:12:07;19.00;99.90
1988;DHT22;12775;46.994;15.498;2023-06-10T02:14:33;19.00;99.90
1988;DHT22;12775;46.994;15.498;2023-06-10T02:17:00;19.00;99.90
1988;DHT22;12775;46.994;15.498;2023-06-10T02:19:27;19.00;99.90
1988;DHT22;12775;46.994;15.498;2023-06-10T02:21:53;19.00;99.90
1988;DHT22;12775;46.994;15.498;2023-06-10T02:24:20;19.00;99.90
1988;DHT22;12775;46.994;15.498;2023-06-10T02:26:46;19.10;99.90
1988;DHT22;12775;46.994;15.498;2023-06-10T02:29:13;19.10;99.90
1988;DHT22;12775;46.994;15.498;2023-06-10T02:31:40;19.10;99.90
1988;DHT22;12775;46.994;15.498;2023-06-10T02:34:08;19.20;99.90
1988;DHT22;12775;46.994;15.498;2023-06-10T02:36:34;19.10;99.90
1988;DHT22;12775;46.994;15.498;2023-06-10T02:39:01;19.10;99.90
1988;DHT22;12775;46.994;15.498;2023-06-10T02:41:28;19.10;99.90
1988;DHT22;12775;46.994;15.498;2023-06-10T02:43:54;19.10;99.90
1988;DHT22;12775;46.994;15.498;2023-06-10T02:46:21;19.10;99.90
1988;DHT22;12775;46.994;15.498;2023-06-10T02:48:47;19.00;99.90
1988;DHT22;12775;46.994;15.498;2023-06-10T02:51:14;19.10;99.90
1988;DHT22;12775;46.994;15.498;2023-06-10T02:53:40;19.10;99.90
1988;DHT22;12775;46.994;15.498;2023-06-10T02:56:08;19.00;99.90
1988;DHT22;12775;46.994;15.498;2023-06-10T02:58:34;19.00;99.90
1988;DHT22;12775;46.994;15.498;2023-06-10T03:01:01;19.00;99.90
1988;DHT22;12775;46.994;15.498;2023-06-10T03:03:28;19.00;99.90
1988;DHT22;12775;46.994;15.498;2023-06-10T03:05:54;19.00;99.90
1988;DHT22;12775;46.994;15.498;2023-06-10T03:08:21;19.10;99.90
1988;DHT22;12775;46.994;15.498;2023-06-10T03:10:47;19.10;99.90
1988;DHT22;12775;46.994;15.498;2023-06-10T03:13:14;19.10;99.90
1988;DHT22;12775;46.994;15.498;2023-06-10T03:15:41;19.00;99.90
1988;DHT22;12775;46.994;15.498;2023-06-10T03:18:08;19.00;99.90
1988;DHT22;12775;46.994;15.498;2023-06-10T03:20:35;19.00;99.90
1988;DHT22;12775;46.994;15.498;2023-06-10T03:23:04;18.90;99.90
1988;DHT22;12775;46.994;15.498;2023-06-10T03:25:30;18.90;99.90
1988;DHT22;12775;46.994;15.498;2023-06-10T03:27:57;18.80;99.90
1988;DHT22;12775;46.994;15.498;2023-06-10T03:30:24;18.80;99.90
1988;DHT22;12775;46.994;15.498;2023-06-10T03:32:50;18.70;99.90
1988;DHT22;12775;46.994;15.498;2023-06-10T03:35:17;18.60;99.90
1988;DHT22;12775;46.994;15.498;2023-06-10T03:37:43;18.50;99.90
1988;DHT22;12775;46.994;15.498;2023-06-10T03:40:11;18.50;99.90
1988;DHT22;12775;46.994;15.498;2023-06-10T03:42:38;18.60;99.90
1988;DHT22;12775;46.994;15.498;2023-06-10T03:45:05;18.50;99.90
1988;DHT22;12775;46.994;15.498;2023-06-10T03:47:34;18.50;99.90
1988;DHT22;12775;46.994;15.498;2023-06-10T03:50:01;18.40;99.90
1988;DHT22;12775;46.994;15.498;2023-06-10T03:52:28;18.40;99.90
1988;DHT22;12775;46.994;15.498;2023-06-10T03:54:54;18.40;99.90
1988;DHT22;12775;46.994;15.498;2023-06-10T03:57:21;18.30;99.90
1988;DHT22;12775;46.994;15.498;2023-06-10T03:59:48;18.30;99.90
1988;DHT22;12775;46.994;15.498;2023-06-10T04:02:15;18.30;99.90
1988;DHT22;12775;46.994;15.498;2023-06-10T04:04:42;18.30;99.90
1988;DHT22;12775;46.994;15.498;2023-06-10T04:07:09;18.30;99.90
1988;DHT22;12775;46.994;15.498;2023-06-10T04:09:37;18.30;99.90
1988;DHT22;12775;46.994;15.498;2023-06-10T04:12:04;18.30;99.90
1988;DHT22;12775;46.994;15.498;2023-06-10T04:14:32;18.30;99.90
1988;DHT22;12775;46.994;15.498;2023-06-10T04:16:58;18.30;99.90
1988;DHT22;12775;46.994;15.498;2023-06-10T04:19:25;18.30;99.90
1988;DHT22;12775;46.994;15.498;2023-06-10T04:21:51;18.30;99.90
1988;DHT22;12775;46.994;15.498;2023-06-10T04:24:18;18.30;99.90
1988;DHT22;12775;46.994;15.498;2023-06-10T04:26:45;18.30;99.90
1988;DHT22;12775;46.994;15.498;2023-06-10T04:29:12;18.30;99.90
1988;DHT22;12775;46.994;15.498;2023-06-10T04:31:39;18.40;99.90
1988;DHT22;12775;46.994;15.498;2023-06-10T04:34:06;18.40;99.90
1988;DHT22;12775;46.994;15.498;2023-06-10T04:36:33;18.50;99.90
1988;DHT22;12775;46.994;15.498;2023-06-10T04:39:00;18.60;99.90
1988;DHT22;12775;46.994;15.498;2023-06-10T04:41:27;18.60;99.90
1988;DHT22;12775;46.994;15.498;2023-06-10T04:43:55;18.70;99.90
1988;DHT22;12775;46.994;15.498;2023-06-10T04:46:22;18.60;99.90
1988;DHT22;12775;46.994;15.498;2023-06-10T04:48:49;18.70;99.90
1988;DHT22;12775;46.994;15.498;2023-06-10T04:51:16;18.80;99.90
1988;DHT22;12775;46.994;15.498;2023-06-10T04:53:43;18.80;99.90
1988;DHT22;12775;46.994;15.498;2023-06-10T04:56:10;18.80;99.90
1988;DHT22;12775;46.994;15.498;2023-06-10T04:58:37;18.80;99.90
1988;DHT22;12775;46.994;15.498;2023-06-10T05:01:03;18.80;99.90
1988;DHT22;12775;46.994;15.498;2023-06-10T05:03:31;18.80;99.90
1988;DHT22;12775;46.994;15.498;2023-06-10T05:05:57;18.80;99.90
1988;DHT22;12775;46.994;15.498;2023-06-10T05:08:24;18.80;99.90
1988;DHT22;12775;46.994;15.498;2023-06-10T05:10:51;19.00;99.90
1988;DHT22;12775;46.994;15.498;2023-06-10T05:13:18;19.00;99.90
1988;DHT22;12775;46.994;15.498;2023-06-10T05:15:44;19.10;99.90
1988;DHT22;12775;46.994;15.498;2023-06-10T05:18:12;19.30;99.90
1988;DHT22;12775;46.994;15.498;2023-06-10T05:20:39;19.30;99.90
1988;DHT22;12775;46.994;15.498;2023-06-10T05:23:07;19.30;99.90
1988;DHT22;12775;46.994;15.498;2023-06-10T05:25:33;19.30;99.90
1988;DHT22;12775;46.994;15.498;2023-06-10T05:28:00;19.40;99.90
1988;DHT22;12775;46.994;15.498;2023-06-10T05:30:26;19.50;99.90
1988;DHT22;12775;46.994;15.498;2023-06-10T05:32:53;19.60;99.90
1988;DHT22;12775;46.994;15.498;2023-06-10T05:35:20;19.70;99.90
1988;DHT22;12775;46.994;15.498;2023-06-10T05:37:47;19.70;99.90
1988;DHT22;12775;46.994;15.498;2023-06-10T05:40:13;19.80;99.90
1988;DHT22;12775;46.994;15.498;2023-06-10T05:42:40;19.80;99.90
1988;DHT22;12775;46.994;15.498;2023-06-10T05:45:08;19.90;99.90
1988;DHT22;12775;46.994;15.498;2023-06-10T05:47:36;20.10;99.90
1988;DHT22;12775;46.994;15.498;2023-06-10T05:50:02;20.10;99.90
1988;DHT22;12775;46.994;15.498;2023-06-10T05:52:29;20.30;99.90
1988;DHT22;12775;46.994;15.498;2023-06-10T05:54:56;20.30;99.90
1988;DHT22;12775;46.994;15.498;2023-06-10T05:57:22;20.40;99.90
1988;DHT22;12775;46.994;15.498;2023-06-10T05:59:50;20.60;99.90
1988;DHT22;12775;46.994;15.498;2023-06-10T06:02:17;20.80;99.90
1988;DHT22;12775;46.994;15.498;2023-06-10T06:04:44;20.70;99.90
1988;DHT22;12775;46.994;15.498;2023-06-10T06:07:11;20.90;99.90
1988;DHT22;12775;46.994;15.498;2023-06-10T06:09:38;21.00;99.90
1988;DHT22;12775;46.994;15.498;2023-06-10T06:12:06;21.00;99.90
1988;DHT22;12775;46.994;15.498;2023-06-10T06:14:36;21.00;99.90
1988;DHT22;12775;46.994;15.498;2023-06-10T06:17:01;21.10;99.90
1988;DHT22;12775;46.994;15.498;2023-06-10T06:19:27;21.20;99.90
1988;DHT22;12775;46.994;15.498;2023-06-10T06:21:55;21.30;99.90
1988;DHT22;12775;46.994;15.498;2023-06-10T06:24:21;21.40;99.90
1988;DHT22;12775;46.994;15.498;2023-06-10T06:26:48;21.50;99.90
1988;DHT22;12775;46.994;15.498;2023-06-10T06:29:16;21.50;99.90
1988;DHT22;12775;46.994;15.498;2023-06-10T06:31:44;21.60;99.90
1988;DHT22;12775;46.994;15.498;2023-06-10T06:34:11;21.70;99.90
1988;DHT22;12775;46.994;15.498;2023-06-10T06:36:38;21.80;99.90
1988;DHT22;12775;46.994;15.498;2023-06-10T06:39:06;21.90;99.90
1988;DHT22;12775;46.994;15.498;2023-06-10T06:41:32;21.90;99.90
1988;DHT22;12775;46.994;15.498;2023-06-10T06:44:00;22.00;99.90
1988;DHT22;12775;46.994;15.498;2023-06-10T06:46:27;22.10;99.90
1988;DHT22;12775;46.994;15.498;2023-06-10T06:48:55;22.30;99.90
1988;DHT22;12775;46.994;15.498;2023-06-10T06:51:22;22.30;99.90
1988;DHT22;12775;46.994;15.498;2023-06-10T06:53:49;22.40;99.90
1988;DHT22;12775;46.994;15.498;2023-06-10T06:56:17;22.40;99.90
1988;DHT22;12775;46.994;15.498;2023-06-10T06:58:43;22.50;99.90
1988;DHT22;12775;46.994;15.498;2023-06-10T07:01:11;22.40;99.90
1988;DHT22;12775;46.994;15.498;2023-06-10T07:03:38;22.50;99.90
1988;DHT22;12775;46.994;15.498;2023-06-10T07:06:05;22.50;99.90
1988;DHT22;12775;46.994;15.498;2023-06-10T07:08:32;22.60;99.90
1988;DHT22;12775;46.994;15.498;2023-06-10T07:10:59;22.60;99.90
1988;DHT22;12775;46.994;15.498;2023-06-10T07:13:26;22.60;99.90
1988;DHT22;12775;46.994;15.498;2023-06-10T07:15:53;22.70;99.90
1988;DHT22;12775;46.994;15.498;2023-06-10T07:18:20;22.70;99.90
1988;DHT22;12775;46.994;15.498;2023-06-10T07:20:47;22.80;99.90
1988;DHT22;12775;46.994;15.498;2023-06-10T07:23:15;22.90;99.90
1988;DHT22;12775;46.994;15.498;2023-06-10T07:25:41;22.90;99.90
1988;DHT22;12775;46.994;15.498;2023-06-10T07:28:08;22.90;99.90
1988;DHT22;12775;46.994;15.498;2023-06-10T07:30:34;23.00;99.90
1988;DHT22;12775;46.994;15.498;2023-06-10T07:33:01;23.00;99.90
1988;DHT22;12775;46.994;15.498;2023-06-10T07:35:28;23.20;99.90
1988;DHT22;12775;46.994;15.498;2023-06-10T07:37:56;23.10;99.90
1988;DHT22;12775;46.994;15.498;2023-06-10T07:40:23;23.10;99.90
1988;DHT22;12775;46.994;15.498;2023-06-10T07:42:51;23.40;99.90
1988;DHT22;12775;46.994;15.498;2023-06-10T07:45:18;23.50;99.90
1988;DHT22;12775;46.994;15.498;2023-06-10T07:47:45;23.50;99.90
1988;DHT22;12775;46.994;15.498;2023-06-10T07:50:14;23.50;99.90
1988;DHT22;12775;46.994;15.498;2023-06-10T07:52:40;23.40;99.90
1988;DHT22;12775;46.994;15.498;2023-06-10T07:55:08;23.60;99.90
1988;DHT22;12775;46.994;15.498;2023-06-10T07:57:35;23.80;99.90
1988;DHT22;12775;46.994;15.498;2023-06-10T08:00:03;23.90;99.90
1988;DHT22;12775;46.994;15.498;2023-06-10T08:02:31;24.00;99.90
1988;DHT22;12775;46.994;15.498;2023-06-10T08:04:58;24.00;99.90
1988;DHT22;12775;46.994;15.498;2023-06-10T08:07:25;24.10;99.90
1988;DHT22;12775;46.994;15.498;2023-06-10T08:09:52;24.10;99.90
1988;DHT22;12775;46.994;15.498;2023-06-10T08:12:18;24.20;99.90
1988;DHT22;12775;46.994;15.498;2023-06-10T08:14:46;24.30;99.90
1988;DHT22;12775;46.994;15.498;2023-06-10T08:17:13;24.50;99.90
1988;DHT22;12775;46.994;15.498;2023-06-10T08:19:40;24.50;99.90
1988;DHT22;12775;46.994;15.498;2023-06-10T08:22:07;25.00;99.90
1988;DHT22;12775;46.994;15.498;2023-06-10T08:24:34;25.20;99.90
1988;DHT22;12775;46.994;15.498;2023-06-10T08:27:03;25.40;99.90
1988;DHT22;12775;46.994;15.498;2023-06-10T08:29:31;25.50;99.90
1988;DHT22;12775;46.994;15.498;2023-06-10T08:31:57;25.50;99.90
1988;DHT22;12775;46.994;15.498;2023-06-10T08:34:24;25.80;99.90
1988;DHT22;12775;46.994;15.498;2023-06-10T08:36:50;25.90;99.90
1988;DHT22;12775;46.994;15.498;2023-06-10T08:39:18;25.80;99.20
1988;DHT22;12775;46.994;15.498;2023-06-10T08:41:46;25.70;98.80
1988;DHT22;12775;46.994;15.498;2023-06-10T08:44:16;25.70;99.90
1988;DHT22;12775;46.994;15.498;2023-06-10T08:46:40;26.00;99.90
1988;DHT22;12775;46.994;15.498;2023-06-10T08:49:08;25.60;99.90
1988;DHT22;12775;46.994;15.498;2023-06-10T08:51:36;25.70;99.90
1988;DHT22;12775;46.994;15.498;2023-06-10T08:54:05;25.70;99.90
1988;DHT22;12775;46.994;15.498;2023-06-10T08:56:31;26.00;99.90
1988;DHT22;12775;46.994;15.498;2023-06-10T08:58:58;25.90;99.90
1988;DHT22;12775;46.994;15.498;2023-06-10T09:01:25;26.30;99.90
1988;DHT22;12775;46.994;15.498;2023-06-10T09:03:51;26.30;99.90
1988;DHT22;12775;46.994;15.498;2023-06-10T09:06:18;26.60;99.90
1988;DHT22;12775;46.994;15.498;2023-06-10T09:08:44;26.70;99.90
1988;DHT22;12775;46.994;15.498;2023-06-10T09:11:12;26.80;99.90
1988;DHT22;12775;46.994;15.498;2023-06-10T09:13:39;26.90;99.90
1988;DHT22;12775;46.994;15.498;2023-06-10T09:16:06;26.90;99.90
1988;DHT22;12775;46.994;15.498;2023-06-10T09:18:32;27.10;99.80
1988;DHT22;12775;46.994;15.498;2023-06-10T09:20:59;27.20;99.30
1988;DHT22;12775;46.994;15.498;2023-06-10T09:23:26;27.20;96.90
1988;DHT22;12775;46.994;15.498;2023-06-10T09:25:57;27.20;99.50
1988;DHT22;12775;46.994;15.498;2023-06-10T09:28:24;27.00;98.70
1988;DHT22;12775;46.994;15.498;2023-06-10T09:30:55;27.20;99.70
1988;DHT22;12775;46.994;15.498;2023-06-10T09:33:17;27.20;98.60
1988;DHT22;12775;46.994;15.498;2023-06-10T09:35:46;26.90;95.50
1988;DHT22;12775;46.994;15.498;2023-06-10T09:38:13;27.00;97.10
1988;DHT22;12775;46.994;15.498;2023-06-10T09:40:51;27.00;97.60
1988;DHT22;12775;46.994;15.498;2023-06-10T09:43:17;27.00;97.60
1988;DHT22;12775;46.994;15.498;2023-06-10T09:45:44;27.00;98.80
1988;DHT22;12775;46.994;15.498;2023-06-10T09:48:10;27.10;98.40
1988;DHT22;12775;46.994;15.498;2023-06-10T09:50:43;27.40;99.30
1988;DHT22;12775;46.994;15.498;2023-06-10T09:53:10;27.20;96.70
1988;DHT22;12775;46.994;15.498;2023-06-10T09:55:38;27.40;98.90
1988;DHT22;12775;46.994;15.498;2023-06-10T09:58:05;27.50;99.90
1988;DHT22;12775;46.994;15.498;2023-06-10T10:00:33;27.80;99.30
1988;DHT22;12775;46.994;15.498;2023-06-10T10:02:59;27.70;99.30
1988;DHT22;12775;46.994;15.498;2023-06-10T10:05:26;28.30;98.40
1988;DHT22;12775;46.994;15.498;2023-06-10T10:07:53;28.20;98.30
1988;DHT22;12775;46.994;15.498;2023-06-10T10:10:21;28.50;94.10
1988;DHT22;12775;46.994;15.498;2023-06-10T10:12:51;28.60;92.30
1988;DHT22;12775;46.994;15.498;2023-06-10T10:15:15;28.50;92.30
1988;DHT22;12775;46.994;15.498;2023-06-10T10:17:49;28.80;98.60
1988;DHT22;12775;46.994;15.498;2023-06-10T10:20:16;28.90;98.10
1988;DHT22;12775;46.994;15.498;2023-06-10T10:22:43;29.00;96.30
1988;DHT22;12775;46.994;15.498;2023-06-10T10:25:12;28.80;93.10
1988;DHT22;12775;46.994;15.498;2023-06-10T10:27:49;29.20;91.20
1988;DHT22;12775;46.994;15.498;2023-06-10T10:30:15;29.20;90.60
1988;DHT22;12775;46.994;15.498;2023-06-10T10:32:47;29.20;90.60
1988;DHT22;12775;46.994;15.498;2023-06-10T10:35:12;29.40;91.00
1988;DHT22;12775;46.994;15.498;2023-06-10T10:37:39;29.40;89.70
1988;DHT22;12775;46.994;15.498;2023-06-10T10:40:06;29.40;89.80
1988;DHT22;12775;46.994;15.498;2023-06-10T10:42:33;29.70;89.30
1988;DHT22;12775;46.994;15.498;2023-06-10T10:45:00;29.80;92.80
1988;DHT22;12775;46.994;15.498;2023-06-10T10:47:27;29.80;93.90
1988;DHT22;12775;46.994;15.498;2023-06-10T10:49:53;30.00;94.40
1988;DHT22;12775;46.994;15.498;2023-06-10T10:52:20;30.30;92.90
1988;DHT22;12775;46.994;15.498;2023-06-10T10:54:46;30.60;89.40
1988;DHT22;12775;46.994;15.498;2023-06-10T10:57:15;30.80;93.50
1988;DHT22;12775;46.994;15.498;2023-06-10T10:59:46;31.20;91.30
1988;DHT22;12775;46.994;15.498;2023-06-10T11:02:18;31.80;91.10
1988;DHT22;12775;46.994;15.498;2023-06-10T11:04:46;31.70;91.10
1988;DHT22;12775;46.994;15.498;2023-06-10T11:07:13;32.20;86.50
1988;DHT22;12775;46.994;15.498;2023-06-10T11:12:41;32.50;84.90
1988;DHT22;12775;46.994;15.498;2023-06-10T11:15:08;32.20;79.80
1988;DHT22;12775;46.994;15.498;2023-06-10T11:17:34;32.20;79.70
1988;DHT22;12775;46.994;15.498;2023-06-10T11:20:02;32.10;78.00
1988;DHT22;12775;46.994;15.498;2023-06-10T11:22:28;32.10;77.90
1988;DHT22;12775;46.994;15.498;2023-06-10T11:24:55;31.80;77.80
1988;DHT22;12775;46.994;15.498;2023-06-10T11:27:23;31.70;80.20
1988;DHT22;12775;46.994;15.498;2023-06-10T11:32:38;31.90;87.40
1988;DHT22;12775;46.994;15.498;2023-06-10T11:35:06;31.90;82.50
1988;DHT22;12775;46.994;15.498;2023-06-10T11:37:33;31.90;82.50
1988;DHT22;12775;46.994;15.498;2023-06-10T11:40:00;31.90;79.90
1988;DHT22;12775;46.994;15.498;2023-06-10T11:42:27;31.70;78.30
1988;DHT22;12775;46.994;15.498;2023-06-10T11:44:54;31.40;78.40
1988;DHT22;12775;46.994;15.498;2023-06-10T11:47:20;31.00;79.70
1988;DHT22;12775;46.994;15.498;2023-06-10T11:49:55;30.80;81.50
1988;DHT22;12775;46.994;15.498;2023-06-10T11:52:26;30.60;79.40
1988;DHT22;12775;46.994;15.498;2023-06-10T11:54:54;30.70;79.90
1988;DHT22;12775;46.994;15.498;2023-06-10T11:57:20;30.40;80.80
1988;DHT22;12775;46.994;15.498;2023-06-10T11:59:47;30.40;80.80
1988;DHT22;12775;46.994;15.498;2023-06-10T12:02:15;30.00;81.20
1988;DHT22;12775;46.994;15.498;2023-06-10T12:04:41;30.00;81.20
1988;DHT22;12775;46.994;15.498;2023-06-10T12:07:08;29.60;81.30
1988;DHT22;12775;46.994;15.498;2023-06-10T12:09:36;29.60;84.00
1988;DHT22;12775;46.994;15.498;2023-06-10T12:12:04;29.60;84.00
1988;DHT22;12775;46.994;15.498;2023-06-10T12:17:11;29.70;85.60
1988;DHT22;12775;46.994;15.498;2023-06-10T12:19:39;29.50;84.30
1988;DHT22;12775;46.994;15.498;2023-06-10T12:22:06;29.60;85.30
1988;DHT22;12775;46.994;15.498;2023-06-10T12:24:32;29.60;85.60
1988;DHT22;12775;46.994;15.498;2023-06-10T12:27:00;29.60;81.70
1988;DHT22;12775;46.994;15.498;2023-06-10T12:29:26;29.60;81.70
1988;DHT22;12775;46.994;15.498;2023-06-10T12:31:54;29.60;83.20
1988;DHT22;12775;46.994;15.498;2023-06-10T12:34:20;29.60;85.10
1988;DHT22;12775;46.994;15.498;2023-06-10T12:36:48;29.60;82.60
1988;DHT22;12775;46.994;15.498;2023-06-10T12:39:15;29.30;83.80
1988;DHT22;12775;46.994;15.498;2023-06-10T12:41:46;28.90;86.00
1988;DHT22;12775;46.994;15.498;2023-06-10T12:44:09;28.60;86.30
1988;DHT22;12775;46.994;15.498;2023-06-10T12:46:36;28.60;86.30
1988;DHT22;12775;46.994;15.498;2023-06-10T12:49:02;28.30;87.00
1988;DHT22;12775;46.994;15.498;2023-06-10T12:51:29;28.30;87.00
1988;DHT22;12775;46.994;15.498;2023-06-10T12:53:56;28.00;87.70
1988;DHT22;12775;46.994;15.498;2023-06-10T12:56:22;27.90;86.50
1988;DHT22;12775;46.994;15.498;2023-06-10T12:58:50;27.60;85.10
1988;DHT22;12775;46.994;15.498;2023-06-10T13:01:17;27.70;87.80
1988;DHT22;12775;46.994;15.498;2023-06-10T13:03:44;27.70;87.80
1988;DHT22;12775;46.994;15.498;2023-06-10T13:06:10;27.60;90.00
1988;DHT22;12775;46.994;15.498;2023-06-10T13:08:37;27.80;86.90
1988;DHT22;12775;46.994;15.498;2023-06-10T13:11:03;27.90;90.10
1988;DHT22;12775;46.994;15.498;2023-06-10T13:13:30;28.00;85.20
1988;DHT22;12775;46.994;15.498;2023-06-10T13:15:57;28.00;86.60
1988;DHT22;12775;46.994;15.498;2023-06-10T13:18:25;28.00;86.60
1988;DHT22;12775;46.994;15.498;2023-06-10T13:20:51;28.10;87.50
1988;DHT22;12775;46.994;15.498;2023-06-10T13:23:19;27.80;86.20
1988;DHT22;12775;46.994;15.498;2023-06-10T13:25:45;27.80;86.20
1988;DHT22;12775;46.994;15.498;2023-06-10T13:28:12;27.60;86.70
1988;DHT22;12775;46.994;15.498;2023-06-10T13:30:39;27.30;88.60
1988;DHT22;12775;46.994;15.498;2023-06-10T13:33:06;27.30;88.40
1988;DHT22;12775;46.994;15.498;2023-06-10T13:35:33;27.00;87.50
1988;DHT22;12775;46.994;15.498;2023-06-10T13:37:59;26.80;88.80
1988;DHT22;12775;46.994;15.498;2023-06-10T13:40:26;26.50;92.00
1988;DHT22;12775;46.994;15.498;2023-06-10T13:42:52;26.30;91.60
1988;DHT22;12775;46.994;15.498;2023-06-10T13:45:19;26.20;93.00
1988;DHT22;12775;46.994;15.498;2023-06-10T13:47:45;26.10;94.20
1988;DHT22;12775;46.994;15.498;2023-06-10T13:50:13;25.80;94.00
1988;DHT22;12775;46.994;15.498;2023-06-10T13:52:40;25.10;96.30
1988;DHT22;12775;46.994;15.498;2023-06-10T13:55:08;25.10;96.60
1988;DHT22;12775;46.994;15.498;2023-06-10T13:57:35;24.90;97.10
1988;DHT22;12775;46.994;15.498;2023-06-10T14:00:04;24.90;97.00
1988;DHT22;12775;46.994;15.498;2023-06-10T14:02:31;24.70;98.00
1988;DHT22;12775;46.994;15.498;2023-06-10T14:04:58;24.60;98.00
1988;DHT22;12775;46.994;15.498;2023-06-10T14:07:25;24.60;97.60
1988;DHT22;12775;46.994;15.498;2023-06-10T14:09:51;24.50;98.40
1988;DHT22;12775;46.994;15.498;2023-06-10T14:12:19;24.50;99.00
1988;DHT22;12775;46.994;15.498;2023-06-10T14:14:46;24.50;98.90
1988;DHT22;12775;46.994;15.498;2023-06-10T14:17:13;24.40;98.10
1988;DHT22;12775;46.994;15.498;2023-06-10T14:19:40;24.30;97.90
1988;DHT22;12775;46.994;15.498;2023-06-10T14:22:07;24.20;97.90
1988;DHT22;12775;46.994;15.498;2023-06-10T14:24:35;24.20;98.70
1988;DHT22;12775;46.994;15.498;2023-06-10T14:27:01;24.20;98.70
1988;DHT22;12775;46.994;15.498;2023-06-10T14:29:28;24.30;98.90
1988;DHT22;12775;46.994;15.498;2023-06-10T14:31:55;24.40;99.70
1988;DHT22;12775;46.994;15.498;2023-06-10T14:34:22;24.30;99.70
1988;DHT22;12775;46.994;15.498;2023-06-10T14:36:48;24.40;99.80
1988;DHT22;12775;46.994;15.498;2023-06-10T14:39:16;24.40;99.90
1988;DHT22;12775;46.994;15.498;2023-06-10T14:41:43;24.40;99.90
1988;DHT22;12775;46.994;15.498;2023-06-10T14:44:10;24.70;99.90
1988;DHT22;12775;46.994;15.498;2023-06-10T14:46:38;24.70;99.90
1988;DHT22;12775;46.994;15.498;2023-06-10T14:49:06;24.70;99.90
1988;DHT22;12775;46.994;15.498;2023-06-10T14:51:32;24.80;99.90
1988;DHT22;12775;46.994;15.498;2023-06-10T14:53:59;24.90;99.90
1988;DHT22;12775;46.994;15.498;2023-06-10T14:56:26;25.10;99.90
1988;DHT22;12775;46.994;15.498;2023-06-10T14:58:53;25.10;99.90
1988;DHT22;12775;46.994;15.498;2023-06-10T15:01:20;25.20;99.90
1988;DHT22;12775;46.994;15.498;2023-06-10T15:03:48;25.30;99.90
1988;DHT22;12775;46.994;15.498;2023-06-10T15:06:14;25.30;99.90
1988;DHT22;12775;46.994;15.498;2023-06-10T15:08:42;25.40;99.90
1988;DHT22;12775;46.994;15.498;2023-06-10T15:11:09;25.50;99.90
1988;DHT22;12775;46.994;15.498;2023-06-10T15:13:36;25.60;99.90
1988;DHT22;12775;46.994;15.498;2023-06-10T15:16:02;25.60;99.90
1988;DHT22;12775;46.994;15.498;2023-06-10T15:18:29;25.70;99.90
1988;DHT22;12775;46.994;15.498;2023-06-10T15:20:55;25.70;99.90
1988;DHT22;12775;46.994;15.498;2023-06-10T15:23:22;25.80;99.90
1988;DHT22;12775;46.994;15.498;2023-06-10T15:25:49;25.90;99.90
1988;DHT22;12775;46.994;15.498;2023-06-10T15:28:16;25.90;99.90
1988;DHT22;12775;46.994;15.498;2023-06-10T15:30:43;26.00;99.90
1988;DHT22;12775;46.994;15.498;2023-06-10T15:33:11;25.80;99.90
1988;DHT22;12775;46.994;15.498;2023-06-10T15:35:38;25.80;99.90
1988;DHT22;12775;46.994;15.498;2023-06-10T15:38:05;25.70;99.90